sensor_id;sensor_type;location;lat;lon;timestamp;P1;durP1;ratioP1;P2;durP2;ratioP2
9176;SDS011;4623;54.310;10.112;2022-08-04T00:00:27;5.63;;;2.80;;
9176;SDS011;4623;54.310;10.112;2022-08-04T00:08:33;4.28;;;2.70;;
9176;SDS011;4623;54.310;10.112;2022-08-04T00:11:19;3.60;;;2.65;;
9176;SDS011;4623;54.310;10.112;2022-08-04T00:13:49;3.97;;;2.72;;
9176;SDS011;4623;54.310;10.112;2022-08-04T00:16:21;3.92;;;2.85;;
9176;SDS011;4623;54.310;10.112;2022-08-04T00:18:56;6.57;;;2.80;;
9176;SDS011;4623;54.310;10.112;2022-08-04T00:21:25;5.00;;;2.60;;
9176;SDS011;4623;54.310;10.112;2022-08-04T00:23:51;4.38;;;3.25;;
9176;SDS011;4623;54.310;10.112;2022-08-04T00:26:19;6.65;;;3.67;;
9176;SDS011;4623;54.310;10.112;2022-08-04T00:28:45;3.55;;;2.78;;
9176;SDS011;4623;54.310;10.112;2022-08-04T00:31:13;6.63;;;3.42;;
9176;SDS011;4623;54.310;10.112;2022-08-04T00:33:42;5.38;;;4.07;;
9176;SDS011;4623;54.310;10.112;2022-08-04T00:36:12;6.80;;;4.28;;
9176;SDS011;4623;54.310;10.112;2022-08-04T00:38:39;6.55;;;3.60;;
9176;SDS011;4623;54.310;10.112;2022-08-04T00:49:18;6.38;;;3.88;;
9176;SDS011;4623;54.310;10.112;2022-08-04T01:01:02;4.78;;;4.30;;
9176;SDS011;4623;54.310;10.112;2022-08-04T01:03:35;6.68;;;3.72;;
9176;SDS011;4623;54.310;10.112;2022-08-04T01:06:11;9.07;;;4.05;;
9176;SDS011;4623;54.310;10.112;2022-08-04T01:08:48;5.15;;;3.67;;
9176;SDS011;4623;54.310;10.112;2022-08-04T01:17:16;4.70;;;3.38;;
9176;SDS011;4623;54.310;10.112;2022-08-04T01:25:24;8.65;;;4.03;;
9176;SDS011;4623;54.310;10.112;2022-08-04T01:30:23;5.70;;;3.78;;
9176;SDS011;4623;54.310;10.112;2022-08-04T01:32:51;5.43;;;3.47;;
9176;SDS011;4623;54.310;10.112;2022-08-04T01:35:23;4.50;;;3.20;;
9176;SDS011;4623;54.310;10.112;2022-08-04T01:40:41;6.53;;;4.72;;
9176;SDS011;4623;54.310;10.112;2022-08-04T01:43:09;6.60;;;3.97;;
9176;SDS011;4623;54.310;10.112;2022-08-04T01:45:37;6.10;;;3.80;;
9176;SDS011;4623;54.310;10.112;2022-08-04T01:48:04;3.58;;;2.88;;
9176;SDS011;4623;54.310;10.112;2022-08-04T01:50:35;7.43;;;3.75;;
9176;SDS011;4623;54.310;10.112;2022-08-04T01:53:01;4.90;;;2.88;;
9176;SDS011;4623;54.310;10.112;2022-08-04T01:55:28;5.50;;;3.80;;
9176;SDS011;4623;54.310;10.112;2022-08-04T01:57:55;3.28;;;2.70;;
9176;SDS011;4623;54.310;10.112;2022-08-04T02:00:24;3.95;;;2.95;;
9176;SDS011;4623;54.310;10.112;2022-08-04T02:02:52;6.35;;;3.67;;
9176;SDS011;4623;54.310;10.112;2022-08-04T02:05:20;8.35;;;4.72;;
9176;SDS011;4623;54.310;10.112;2022-08-04T02:07:49;6.03;;;3.85;;
9176;SDS011;4623;54.310;10.112;2022-08-04T02:13:18;5.78;;;3.05;;
9176;SDS011;4623;54.310;10.112;2022-08-04T02:16:18;4.40;;;3.22;;
9176;SDS011;4623;54.310;10.112;2022-08-04T02:19:04;5.63;;;3.38;;
9176;SDS011;4623;54.310;10.112;2022-08-04T02:21:38;7.32;;;3.45;;
9176;SDS011;4623;54.310;10.112;2022-08-04T02:24:06;5.85;;;3.50;;
9176;SDS011;4623;54.310;10.112;2022-08-04T02:26:33;5.85;;;3.88;;
9176;SDS011;4623;54.310;10.112;2022-08-04T02:31:48;4.35;;;3.33;;
9176;SDS011;4623;54.310;10.112;2022-08-04T02:34:24;4.72;;;2.53;;
9176;SDS011;4623;54.310;10.112;2022-08-04T02:36:55;5.70;;;2.97;;
9176;SDS011;4623;54.310;10.112;2022-08-04T02:39:23;6.05;;;3.25;;
9176;SDS011;4623;54.310;10.112;2022-08-04T02:41:55;3.65;;;2.80;;
9176;SDS011;4623;54.310;10.112;2022-08-04T02:44:23;4.13;;;2.95;;
9176;SDS011;4623;54.310;10.112;2022-08-04T02:46:52;7.03;;;3.20;;
9176;SDS011;4623;54.310;10.112;2022-08-04T02:49:19;5.13;;;3.10;;
9176;SDS011;4623;54.310;10.112;2022-08-04T02:51:46;6.00;;;3.85;;
9176;SDS011;4623;54.310;10.112;2022-08-04T02:54:16;4.93;;;3.05;;
9176;SDS011;4623;54.310;10.112;2022-08-04T02:56:44;6.70;;;3.85;;
9176;SDS011;4623;54.310;10.112;2022-08-04T02:59:11;4.57;;;2.88;;
9176;SDS011;4623;54.310;10.112;2022-08-04T03:01:38;7.90;;;3.58;;
9176;SDS011;4623;54.310;10.112;2022-08-04T03:07:03;3.25;;;2.90;;
9176;SDS011;4623;54.310;10.112;2022-08-04T03:23:50;3.83;;;2.60;;
9176;SDS011;4623;54.310;10.112;2022-08-04T03:29:07;4.65;;;2.35;;
9176;SDS011;4623;54.310;10.112;2022-08-04T03:32:11;4.95;;;2.40;;
9176;SDS011;4623;54.310;10.112;2022-08-04T03:35:02;4.07;;;2.85;;
9176;SDS011;4623;54.310;10.112;2022-08-04T03:58:09;3.25;;;2.25;;
9176;SDS011;4623;54.310;10.112;2022-08-04T04:05:43;4.38;;;2.15;;
9176;SDS011;4623;54.310;10.112;2022-08-04T04:11:32;3.90;;;2.58;;
9176;SDS011;4623;54.310;10.112;2022-08-04T04:42:09;4.80;;;2.78;;
9176;SDS011;4623;54.310;10.112;2022-08-04T04:45:02;7.05;;;3.15;;
9176;SDS011;4623;54.310;10.112;2022-08-04T04:47:54;5.28;;;2.45;;
9176;SDS011;4623;54.310;10.112;2022-08-04T04:53:10;6.32;;;2.63;;
9176;SDS011;4623;54.310;10.112;2022-08-04T04:55:44;5.78;;;2.85;;
9176;SDS011;4623;54.310;10.112;2022-08-04T04:58:17;9.90;;;3.83;;
9176;SDS011;4623;54.310;10.112;2022-08-04T05:06:42;3.67;;;2.42;;
9176;SDS011;4623;54.310;10.112;2022-08-04T05:09:26;4.82;;;2.40;;
9176;SDS011;4623;54.310;10.112;2022-08-04T05:14:53;6.90;;;2.92;;
9176;SDS011;4623;54.310;10.112;2022-08-04T05:17:24;5.57;;;3.28;;
9176;SDS011;4623;54.310;10.112;2022-08-04T05:22:27;14.15;;;2.38;;
9176;SDS011;4623;54.310;10.112;2022-08-04T05:25:00;8.32;;;3.38;;
9176;SDS011;4623;54.310;10.112;2022-08-04T05:27:37;8.38;;;3.33;;
9176;SDS011;4623;54.310;10.112;2022-08-04T05:30:06;12.00;;;3.38;;
9176;SDS011;4623;54.310;10.112;2022-08-04T05:33:07;7.50;;;2.40;;
9176;SDS011;4623;54.310;10.112;2022-08-04T05:35:51;5.93;;;2.70;;
9176;SDS011;4623;54.310;10.112;2022-08-04T05:38:17;6.88;;;2.88;;
9176;SDS011;4623;54.310;10.112;2022-08-04T05:40:46;6.22;;;2.97;;
9176;SDS011;4623;54.310;10.112;2022-08-04T05:43:13;5.57;;;1.90;;
9176;SDS011;4623;54.310;10.112;2022-08-04T05:45:40;2.60;;;2.08;;
9176;SDS011;4623;54.310;10.112;2022-08-04T05:48:07;8.07;;;2.90;;
9176;SDS011;4623;54.310;10.112;2022-08-04T05:50:34;5.38;;;2.20;;
9176;SDS011;4623;54.310;10.112;2022-08-04T05:53:00;6.50;;;2.83;;
9176;SDS011;4623;54.310;10.112;2022-08-04T05:55:28;8.57;;;3.15;;
9176;SDS011;4623;54.310;10.112;2022-08-04T05:57:54;6.35;;;2.60;;
9176;SDS011;4623;54.310;10.112;2022-08-04T06:00:21;7.32;;;3.25;;
9176;SDS011;4623;54.310;10.112;2022-08-04T06:02:48;3.00;;;2.30;;
9176;SDS011;4623;54.310;10.112;2022-08-04T06:05:16;3.75;;;1.92;;
9176;SDS011;4623;54.310;10.112;2022-08-04T06:07:43;5.05;;;2.53;;
9176;SDS011;4623;54.310;10.112;2022-08-04T06:10:09;4.80;;;2.30;;
9176;SDS011;4623;54.310;10.112;2022-08-04T06:12:37;2.95;;;2.03;;
9176;SDS011;4623;54.310;10.112;2022-08-04T06:15:10;3.42;;;2.20;;
9176;SDS011;4623;54.310;10.112;2022-08-04T06:18:14;6.13;;;2.10;;
9176;SDS011;4623;54.310;10.112;2022-08-04T06:20:35;4.50;;;2.35;;
9176;SDS011;4623;54.310;10.112;2022-08-04T06:23:03;2.58;;;1.92;;
9176;SDS011;4623;54.310;10.112;2022-08-04T06:25:33;5.68;;;2.78;;
9176;SDS011;4623;54.310;10.112;2022-08-04T06:28:21;8.43;;;3.03;;
9176;SDS011;4623;54.310;10.112;2022-08-04T06:30:47;6.22;;;1.92;;
9176;SDS011;4623;54.310;10.112;2022-08-04T06:33:15;3.08;;;2.08;;
9176;SDS011;4623;54.310;10.112;2022-08-04T06:36:08;4.75;;;2.63;;
9176;SDS011;4623;54.310;10.112;2022-08-04T06:38:36;6.10;;;2.28;;
9176;SDS011;4623;54.310;10.112;2022-08-04T06:41:02;1.77;;;1.60;;
9176;SDS011;4623;54.310;10.112;2022-08-04T06:43:33;3.08;;;2.33;;
9176;SDS011;4623;54.310;10.112;2022-08-04T06:46:00;3.00;;;1.98;;
9176;SDS011;4623;54.310;10.112;2022-08-04T06:48:28;3.38;;;2.10;;
9176;SDS011;4623;54.310;10.112;2022-08-04T06:50:55;5.43;;;2.22;;
9176;SDS011;4623;54.310;10.112;2022-08-04T06:53:23;3.28;;;2.15;;
9176;SDS011;4623;54.310;10.112;2022-08-04T06:55:49;3.42;;;2.20;;
9176;SDS011;4623;54.310;10.112;2022-08-04T06:58:16;5.35;;;2.05;;
9176;SDS011;4623;54.310;10.112;2022-08-04T07:00:44;4.82;;;2.13;;
9176;SDS011;4623;54.310;10.112;2022-08-04T07:03:11;5.93;;;2.75;;
9176;SDS011;4623;54.310;10.112;2022-08-04T07:05:38;3.55;;;2.30;;
9176;SDS011;4623;54.310;10.112;2022-08-04T07:08:05;6.38;;;2.40;;
9176;SDS011;4623;54.310;10.112;2022-08-04T07:10:33;5.47;;;2.28;;
9176;SDS011;4623;54.310;10.112;2022-08-04T07:12:59;5.78;;;2.20;;
9176;SDS011;4623;54.310;10.112;2022-08-04T07:15:26;5.63;;;2.10;;
9176;SDS011;4623;54.310;10.112;2022-08-04T07:17:53;19.30;;;2.65;;
9176;SDS011;4623;54.310;10.112;2022-08-04T07:20:26;4.13;;;1.70;;
9176;SDS011;4623;54.310;10.112;2022-08-04T07:22:53;6.43;;;2.28;;
9176;SDS011;4623;54.310;10.112;2022-08-04T07:25:19;3.42;;;2.10;;
9176;SDS011;4623;54.310;10.112;2022-08-04T07:27:45;8.27;;;2.38;;
9176;SDS011;4623;54.310;10.112;2022-08-04T07:30:11;8.48;;;2.00;;
9176;SDS011;4623;54.310;10.112;2022-08-04T07:32:38;3.55;;;1.90;;
9176;SDS011;4623;54.310;10.112;2022-08-04T07:35:05;6.38;;;2.53;;
9176;SDS011;4623;54.310;10.112;2022-08-04T07:37:32;3.85;;;1.90;;
9176;SDS011;4623;54.310;10.112;2022-08-04T07:39:58;3.95;;;2.30;;
9176;SDS011;4623;54.310;10.112;2022-08-04T07:42:24;6.22;;;2.33;;
9176;SDS011;4623;54.310;10.112;2022-08-04T07:44:51;9.18;;;2.35;;
9176;SDS011;4623;54.310;10.112;2022-08-04T07:47:16;4.75;;;2.30;;
9176;SDS011;4623;54.310;10.112;2022-08-04T07:49:42;5.32;;;2.63;;
9176;SDS011;4623;54.310;10.112;2022-08-04T07:52:08;7.97;;;3.15;;
9176;SDS011;4623;54.310;10.112;2022-08-04T07:54:34;8.07;;;2.20;;
9176;SDS011;4623;54.310;10.112;2022-08-04T07:57:00;4.25;;;2.20;;
9176;SDS011;4623;54.310;10.112;2022-08-04T07:59:26;8.27;;;2.58;;
9176;SDS011;4623;54.310;10.112;2022-08-04T08:01:52;4.13;;;2.42;;
9176;SDS011;4623;54.310;10.112;2022-08-04T08:04:19;6.25;;;2.13;;
9176;SDS011;4623;54.310;10.112;2022-08-04T08:06:46;5.10;;;2.40;;
9176;SDS011;4623;54.310;10.112;2022-08-04T08:09:13;7.50;;;2.58;;
9176;SDS011;4623;54.310;10.112;2022-08-04T08:11:49;7.72;;;2.50;;
9176;SDS011;4623;54.310;10.112;2022-08-04T08:14:16;8.48;;;2.30;;
9176;SDS011;4623;54.310;10.112;2022-08-04T08:16:42;7.97;;;2.58;;
9176;SDS011;4623;54.310;10.112;2022-08-04T08:19:08;10.25;;;2.88;;
9176;SDS011;4623;54.310;10.112;2022-08-04T08:21:35;5.40;;;2.35;;
9176;SDS011;4623;54.310;10.112;2022-08-04T08:24:01;6.25;;;2.33;;
9176;SDS011;4623;54.310;10.112;2022-08-04T08:26:27;4.28;;;2.15;;
9176;SDS011;4623;54.310;10.112;2022-08-04T08:28:53;5.40;;;1.95;;
9176;SDS011;4623;54.310;10.112;2022-08-04T08:31:19;10.10;;;2.50;;
9176;SDS011;4623;54.310;10.112;2022-08-04T08:33:45;3.78;;;1.90;;
9176;SDS011;4623;54.310;10.112;2022-08-04T08:38:54;2.50;;;2.25;;
9176;SDS011;4623;54.310;10.112;2022-08-04T08:47:03;6.90;;;2.75;;
9176;SDS011;4623;54.310;10.112;2022-08-04T08:55:19;3.25;;;2.25;;
9176;SDS011;4623;54.310;10.112;2022-08-04T09:03:46;5.45;;;1.85;;
9176;SDS011;4623;54.310;10.112;2022-08-04T09:06:46;3.67;;;1.80;;
9176;SDS011;4623;54.310;10.112;2022-08-04T09:17:41;5.07;;;1.65;;
9176;SDS011;4623;54.310;10.112;2022-08-04T09:20:21;4.68;;;2.20;;
9176;SDS011;4623;54.310;10.112;2022-08-04T09:26:12;4.15;;;1.30;;
9176;SDS011;4623;54.310;10.112;2022-08-04T09:28:52;1.63;;;1.38;;
9176;SDS011;4623;54.310;10.112;2022-08-04T09:31:35;2.60;;;1.63;;
9176;SDS011;4623;54.310;10.112;2022-08-04T09:34:30;3.38;;;1.60;;
9176;SDS011;4623;54.310;10.112;2022-08-04T09:37:31;4.72;;;1.85;;
9176;SDS011;4623;54.310;10.112;2022-08-04T09:48:05;5.40;;;1.90;;
9176;SDS011;4623;54.310;10.112;2022-08-04T09:50:36;2.08;;;1.50;;
9176;SDS011;4623;54.310;10.112;2022-08-04T09:58:22;5.35;;;1.42;;
9176;SDS011;4623;54.310;10.112;2022-08-04T10:00:50;1.52;;;1.33;;
9176;SDS011;4623;54.310;10.112;2022-08-04T10:03:20;4.18;;;1.65;;
9176;SDS011;4623;54.310;10.112;2022-08-04T10:08:27;1.85;;;1.33;;
9176;SDS011;4623;54.310;10.112;2022-08-04T10:16:31;4.32;;;1.98;;
9176;SDS011;4623;54.310;10.112;2022-08-04T10:19:31;4.35;;;2.13;;
9176;SDS011;4623;54.310;10.112;2022-08-04T10:27:44;3.72;;;1.10;;
9176;SDS011;4623;54.310;10.112;2022-08-04T10:30:15;3.08;;;1.75;;
9176;SDS011;4623;54.310;10.112;2022-08-04T10:35:17;2.63;;;1.55;;
9176;SDS011;4623;54.310;10.112;2022-08-04T10:46:30;3.28;;;1.30;;
9176;SDS011;4623;54.310;10.112;2022-08-04T10:49:03;3.47;;;1.77;;
9176;SDS011;4623;54.310;10.112;2022-08-04T10:51:53;3.15;;;1.88;;
9176;SDS011;4623;54.310;10.112;2022-08-04T10:54:26;3.65;;;1.92;;
9176;SDS011;4623;54.310;10.112;2022-08-04T10:57:13;2.58;;;1.60;;
9176;SDS011;4623;54.310;10.112;2022-08-04T10:59:59;4.05;;;1.48;;
9176;SDS011;4623;54.310;10.112;2022-08-04T11:05:29;5.18;;;2.53;;
9176;SDS011;4623;54.310;10.112;2022-08-04T11:08:14;2.28;;;1.73;;
9176;SDS011;4623;54.310;10.112;2022-08-04T11:13:31;2.47;;;1.50;;
9176;SDS011;4623;54.310;10.112;2022-08-04T11:16:03;1.80;;;1.60;;
9176;SDS011;4623;54.310;10.112;2022-08-04T11:18:44;1.98;;;1.80;;
9176;SDS011;4623;54.310;10.112;2022-08-04T11:21:20;1.17;;;1.08;;
9176;SDS011;4623;54.310;10.112;2022-08-04T11:23:58;2.08;;;1.30;;
9176;SDS011;4623;54.310;10.112;2022-08-04T11:26:37;1.27;;;1.00;;
9176;SDS011;4623;54.310;10.112;2022-08-04T11:29:28;2.20;;;1.35;;
9176;SDS011;4623;54.310;10.112;2022-08-04T11:32:11;1.45;;;0.82;;
9176;SDS011;4623;54.310;10.112;2022-08-04T11:34:45;1.60;;;1.38;;
9176;SDS011;4623;54.310;10.112;2022-08-04T11:37:22;2.22;;;1.30;;
9176;SDS011;4623;54.310;10.112;2022-08-04T11:39:52;1.70;;;1.17;;
9176;SDS011;4623;54.310;10.112;2022-08-04T11:42:27;3.90;;;1.20;;
9176;SDS011;4623;54.310;10.112;2022-08-04T11:44:59;1.45;;;1.20;;
9176;SDS011;4623;54.310;10.112;2022-08-04T11:47:40;3.40;;;1.20;;
9176;SDS011;4623;54.310;10.112;2022-08-04T11:50:13;1.30;;;1.20;;
9176;SDS011;4623;54.310;10.112;2022-08-04T11:52:52;1.30;;;1.20;;
9176;SDS011;4623;54.310;10.112;2022-08-04T11:55:21;2.35;;;1.50;;
9176;SDS011;4623;54.310;10.112;2022-08-04T11:57:48;2.78;;;1.75;;
9176;SDS011;4623;54.310;10.112;2022-08-04T12:00:15;2.05;;;1.50;;
9176;SDS011;4623;54.310;10.112;2022-08-04T12:02:54;5.78;;;1.77;;
9176;SDS011;4623;54.310;10.112;2022-08-04T12:05:34;1.63;;;1.52;;
9176;SDS011;4623;54.310;10.112;2022-08-04T12:08:20;1.45;;;1.30;;
9176;SDS011;4623;54.310;10.112;2022-08-04T12:11:25;1.73;;;1.50;;
9176;SDS011;4623;54.310;10.112;2022-08-04T12:16:57;1.50;;;1.40;;
9176;SDS011;4623;54.310;10.112;2022-08-04T12:19:31;1.73;;;1.45;;
9176;SDS011;4623;54.310;10.112;2022-08-04T12:22:05;2.13;;;1.40;;
9176;SDS011;4623;54.310;10.112;2022-08-04T12:24:36;1.80;;;1.70;;
9176;SDS011;4623;54.310;10.112;2022-08-04T12:27:17;2.15;;;1.85;;
9176;SDS011;4623;54.310;10.112;2022-08-04T12:29:47;1.77;;;1.67;;
9176;SDS011;4623;54.310;10.112;2022-08-04T12:32:25;2.78;;;1.98;;
9176;SDS011;4623;54.310;10.112;2022-08-04T12:35:19;2.38;;;1.70;;
9176;SDS011;4623;54.310;10.112;2022-08-04T12:37:53;1.77;;;1.50;;
9176;SDS011;4623;54.310;10.112;2022-08-04T12:45:48;1.80;;;1.70;;
9176;SDS011;4623;54.310;10.112;2022-08-04T12:48:16;1.80;;;1.70;;
9176;SDS011;4623;54.310;10.112;2022-08-04T12:50:46;1.70;;;1.48;;
9176;SDS011;4623;54.310;10.112;2022-08-04T12:53:13;3.97;;;1.85;;
9176;SDS011;4623;54.310;10.112;2022-08-04T12:55:43;1.45;;;1.30;;
9176;SDS011;4623;54.310;10.112;2022-08-04T12:58:14;2.67;;;1.63;;
9176;SDS011;4623;54.310;10.112;2022-08-04T13:00:42;2.78;;;1.52;;
9176;SDS011;4623;54.310;10.112;2022-08-04T13:03:15;2.97;;;1.60;;
9176;SDS011;4623;54.310;10.112;2022-08-04T13:05:43;3.92;;;1.77;;
9176;SDS011;4623;54.310;10.112;2022-08-04T13:08:10;1.73;;;1.50;;
9176;SDS011;4623;54.310;10.112;2022-08-04T13:10:38;3.03;;;1.73;;
9176;SDS011;4623;54.310;10.112;2022-08-04T13:13:10;1.88;;;1.50;;
9176;SDS011;4623;54.310;10.112;2022-08-04T13:15:39;5.38;;;2.05;;
9176;SDS011;4623;54.310;10.112;2022-08-04T13:18:08;2.35;;;1.88;;
9176;SDS011;4623;54.310;10.112;2022-08-04T13:20:37;2.03;;;1.80;;
9176;SDS011;4623;54.310;10.112;2022-08-04T13:23:07;7.82;;;2.35;;
9176;SDS011;4623;54.310;10.112;2022-08-04T13:25:48;2.75;;;1.95;;
9176;SDS011;4623;54.310;10.112;2022-08-04T13:28:19;6.63;;;1.92;;
9176;SDS011;4623;54.310;10.112;2022-08-04T13:30:48;5.38;;;2.20;;
9176;SDS011;4623;54.310;10.112;2022-08-04T13:33:27;3.30;;;1.95;;
9176;SDS011;4623;54.310;10.112;2022-08-04T13:35:55;3.47;;;1.60;;
9176;SDS011;4623;54.310;10.112;2022-08-04T13:38:22;2.50;;;1.73;;
9176;SDS011;4623;54.310;10.112;2022-08-04T13:40:49;3.35;;;1.80;;
9176;SDS011;4623;54.310;10.112;2022-08-04T13:43:23;1.95;;;1.70;;
9176;SDS011;4623;54.310;10.112;2022-08-04T13:45:58;4.25;;;2.35;;
9176;SDS011;4623;54.310;10.112;2022-08-04T13:48:29;3.25;;;2.22;;
9176;SDS011;4623;54.310;10.112;2022-08-04T13:51:05;4.38;;;1.75;;
9176;SDS011;4623;54.310;10.112;2022-08-04T13:53:34;2.17;;;1.90;;
9176;SDS011;4623;54.310;10.112;2022-08-04T13:56:02;7.38;;;1.77;;
9176;SDS011;4623;54.310;10.112;2022-08-04T13:58:33;4.75;;;2.50;;
9176;SDS011;4623;54.310;10.112;2022-08-04T14:03:35;2.30;;;2.05;;
9176;SDS011;4623;54.310;10.112;2022-08-04T14:09:28;1.70;;;1.60;;
9176;SDS011;4623;54.310;10.112;2022-08-04T14:11:39;4.43;;;1.88;;
9176;SDS011;4623;54.310;10.112;2022-08-04T14:14:16;3.50;;;2.03;;
9176;SDS011;4623;54.310;10.112;2022-08-04T14:16:53;3.47;;;1.85;;
9176;SDS011;4623;54.310;10.112;2022-08-04T14:19:26;2.22;;;1.80;;
9176;SDS011;4623;54.310;10.112;2022-08-04T14:21:53;1.77;;;1.67;;
9176;SDS011;4623;54.310;10.112;2022-08-04T14:24:25;4.75;;;2.20;;
9176;SDS011;4623;54.310;10.112;2022-08-04T14:26:52;3.78;;;1.80;;
9176;SDS011;4623;54.310;10.112;2022-08-04T14:29:24;1.70;;;1.60;;
9176;SDS011;4623;54.310;10.112;2022-08-04T14:31:50;3.03;;;1.80;;
9176;SDS011;4623;54.310;10.112;2022-08-04T14:34:26;2.47;;;1.98;;
9176;SDS011;4623;54.310;10.112;2022-08-04T14:36:53;2.17;;;1.95;;
9176;SDS011;4623;54.310;10.112;2022-08-04T14:39:34;3.55;;;2.53;;
9176;SDS011;4623;54.310;10.112;2022-08-04T14:42:07;3.53;;;2.30;;
9176;SDS011;4623;54.310;10.112;2022-08-04T14:47:17;13.13;;;3.22;;
9176;SDS011;4623;54.310;10.112;2022-08-04T14:49:55;5.65;;;2.28;;
9176;SDS011;4623;54.310;10.112;2022-08-04T14:52:21;7.95;;;2.80;;
9176;SDS011;4623;54.310;10.112;2022-08-04T14:54:49;3.85;;;2.33;;
9176;SDS011;4623;54.310;10.112;2022-08-04T14:57:15;5.63;;;2.85;;
9176;SDS011;4623;54.310;10.112;2022-08-04T14:59:44;8.65;;;3.38;;
9176;SDS011;4623;54.310;10.112;2022-08-04T15:02:12;5.53;;;2.45;;
9176;SDS011;4623;54.310;10.112;2022-08-04T15:04:40;6.53;;;2.60;;
9176;SDS011;4623;54.310;10.112;2022-08-04T15:07:07;6.07;;;3.40;;
9176;SDS011;4623;54.310;10.112;2022-08-04T15:09:33;8.35;;;2.63;;
9176;SDS011;4623;54.310;10.112;2022-08-04T15:11:58;4.13;;;2.42;;
9176;SDS011;4623;54.310;10.112;2022-08-04T15:14:24;5.13;;;2.40;;
9176;SDS011;4623;54.310;10.112;2022-08-04T15:16:50;4.32;;;2.30;;
9176;SDS011;4623;54.310;10.112;2022-08-04T15:19:16;3.28;;;2.15;;
9176;SDS011;4623;54.310;10.112;2022-08-04T15:21:43;6.60;;;2.63;;
9176;SDS011;4623;54.310;10.112;2022-08-04T15:24:09;4.68;;;2.50;;
9176;SDS011;4623;54.310;10.112;2022-08-04T15:26:37;5.90;;;2.80;;
9176;SDS011;4623;54.310;10.112;2022-08-04T15:31:40;4.05;;;2.28;;
9176;SDS011;4623;54.310;10.112;2022-08-04T15:34:07;5.55;;;2.20;;
9176;SDS011;4623;54.310;10.112;2022-08-04T15:36:41;7.90;;;2.97;;
9176;SDS011;4623;54.310;10.112;2022-08-04T15:41:47;6.93;;;2.33;;
9176;SDS011;4623;54.310;10.112;2022-08-04T15:49:20;6.53;;;2.40;;
9176;SDS011;4623;54.310;10.112;2022-08-04T15:52:09;4.57;;;2.65;;
9176;SDS011;4623;54.310;10.112;2022-08-04T15:54:34;5.20;;;2.10;;
9176;SDS011;4623;54.310;10.112;2022-08-04T15:57:00;4.93;;;2.17;;
9176;SDS011;4623;54.310;10.112;2022-08-04T16:10:39;5.07;;;2.30;;
9176;SDS011;4623;54.310;10.112;2022-08-04T16:13:10;5.45;;;1.92;;
9176;SDS011;4623;54.310;10.112;2022-08-04T16:15:45;6.97;;;3.30;;
9176;SDS011;4623;54.310;10.112;2022-08-04T16:18:20;5.25;;;2.38;;
9176;SDS011;4623;54.310;10.112;2022-08-04T16:20:46;5.20;;;2.20;;
9176;SDS011;4623;54.310;10.112;2022-08-04T16:26:40;7.60;;;2.25;;
9176;SDS011;4623;54.310;10.112;2022-08-04T16:29:01;6.80;;;2.58;;
9176;SDS011;4623;54.310;10.112;2022-08-04T16:34:57;5.93;;;2.55;;
9176;SDS011;4623;54.310;10.112;2022-08-04T16:37:34;3.53;;;2.20;;
9176;SDS011;4623;54.310;10.112;2022-08-04T16:42:50;3.80;;;2.22;;
9176;SDS011;4623;54.310;10.112;2022-08-04T16:45:17;8.85;;;2.50;;
9176;SDS011;4623;54.310;10.112;2022-08-04T16:50:18;4.72;;;2.42;;
9176;SDS011;4623;54.310;10.112;2022-08-04T16:52:50;7.65;;;2.15;;
9176;SDS011;4623;54.310;10.112;2022-08-04T16:55:17;6.65;;;2.35;;
9176;SDS011;4623;54.310;10.112;2022-08-04T16:57:54;4.80;;;2.22;;
9176;SDS011;4623;54.310;10.112;2022-08-04T17:00:28;7.75;;;2.13;;
9176;SDS011;4623;54.310;10.112;2022-08-04T17:03:05;4.65;;;1.90;;
9176;SDS011;4623;54.310;10.112;2022-08-04T17:05:33;3.28;;;1.90;;
9176;SDS011;4623;54.310;10.112;2022-08-04T17:07:59;6.60;;;2.00;;
9176;SDS011;4623;54.310;10.112;2022-08-04T17:13:20;5.55;;;2.22;;
9176;SDS011;4623;54.310;10.112;2022-08-04T17:15:50;5.22;;;2.90;;
9176;SDS011;4623;54.310;10.112;2022-08-04T17:18:19;3.28;;;1.80;;
9176;SDS011;4623;54.310;10.112;2022-08-04T17:20:47;3.40;;;1.92;;
9176;SDS011;4623;54.310;10.112;2022-08-04T17:23:22;2.33;;;1.67;;
9176;SDS011;4623;54.310;10.112;2022-08-04T17:28:46;3.13;;;1.63;;
9176;SDS011;4623;54.310;10.112;2022-08-04T17:31:14;1.88;;;1.40;;
9176;SDS011;4623;54.310;10.112;2022-08-04T17:33:47;2.80;;;1.65;;
9176;SDS011;4623;54.310;10.112;2022-08-04T17:36:15;3.67;;;1.67;;
9176;SDS011;4623;54.310;10.112;2022-08-04T17:38:43;3.72;;;1.73;;
9176;SDS011;4623;54.310;10.112;2022-08-04T17:41:10;4.63;;;2.17;;
9176;SDS011;4623;54.310;10.112;2022-08-04T17:43:39;2.28;;;1.48;;
9176;SDS011;4623;54.310;10.112;2022-08-04T17:51:55;5.68;;;1.98;;
9176;SDS011;4623;54.310;10.112;2022-08-04T17:56:51;3.90;;;1.70;;
9176;SDS011;4623;54.310;10.112;2022-08-04T18:04:28;2.47;;;1.73;;
9176;SDS011;4623;54.310;10.112;2022-08-04T18:06:54;1.30;;;1.20;;
9176;SDS011;4623;54.310;10.112;2022-08-04T18:12:46;1.90;;;1.45;;
9176;SDS011;4623;54.310;10.112;2022-08-04T18:15:09;2.25;;;1.45;;
9176;SDS011;4623;54.310;10.112;2022-08-04T18:17:53;2.55;;;1.63;;
9176;SDS011;4623;54.310;10.112;2022-08-04T18:20:19;3.90;;;1.60;;
9176;SDS011;4623;54.310;10.112;2022-08-04T18:22:48;2.58;;;1.52;;
9176;SDS011;4623;54.310;10.112;2022-08-04T18:25:15;2.15;;;1.45;;
9176;SDS011;4623;54.310;10.112;2022-08-04T18:27:49;1.60;;;1.42;;
9176;SDS011;4623;54.310;10.112;2022-08-04T18:30:24;1.23;;;1.10;;
9176;SDS011;4623;54.310;10.112;2022-08-04T18:32:50;2.55;;;1.65;;
9176;SDS011;4623;54.310;10.112;2022-08-04T18:35:19;3.67;;;1.55;;
9176;SDS011;4623;54.310;10.112;2022-08-04T18:37:45;2.60;;;1.65;;
9176;SDS011;4623;54.310;10.112;2022-08-04T18:40:11;1.58;;;1.48;;
9176;SDS011;4623;54.310;10.112;2022-08-04T18:42:37;2.78;;;1.40;;
9176;SDS011;4623;54.310;10.112;2022-08-04T18:45:03;1.42;;;1.30;;
9176;SDS011;4623;54.310;10.112;2022-08-04T18:47:30;2.53;;;1.70;;
9176;SDS011;4623;54.310;10.112;2022-08-04T18:49:56;2.17;;;1.27;;
9176;SDS011;4623;54.310;10.112;2022-08-04T18:52:22;2.50;;;1.40;;
9176;SDS011;4623;54.310;10.112;2022-08-04T18:54:48;2.60;;;1.83;;
9176;SDS011;4623;54.310;10.112;2022-08-04T18:57:20;2.13;;;1.50;;
9176;SDS011;4623;54.310;10.112;2022-08-04T18:59:47;2.92;;;1.55;;
9176;SDS011;4623;54.310;10.112;2022-08-04T19:02:13;1.50;;;1.02;;
9176;SDS011;4623;54.310;10.112;2022-08-04T19:04:39;2.65;;;1.65;;
9176;SDS011;4623;54.310;10.112;2022-08-04T19:07:06;3.28;;;1.50;;
9176;SDS011;4623;54.310;10.112;2022-08-04T19:09:32;1.90;;;1.42;;
9176;SDS011;4623;54.310;10.112;2022-08-04T19:11:58;1.40;;;1.30;;
9176;SDS011;4623;54.310;10.112;2022-08-04T19:14:26;3.38;;;1.58;;
9176;SDS011;4623;54.310;10.112;2022-08-04T19:16:52;5.97;;;1.90;;
9176;SDS011;4623;54.310;10.112;2022-08-04T19:19:18;2.63;;;1.42;;
9176;SDS011;4623;54.310;10.112;2022-08-04T19:21:44;3.90;;;1.45;;
9176;SDS011;4623;54.310;10.112;2022-08-04T19:24:10;1.77;;;1.55;;
9176;SDS011;4623;54.310;10.112;2022-08-04T19:26:38;1.95;;;1.30;;
9176;SDS011;4623;54.310;10.112;2022-08-04T19:29:05;1.85;;;1.60;;
9176;SDS011;4623;54.310;10.112;2022-08-04T19:31:31;3.22;;;1.20;;
9176;SDS011;4623;54.310;10.112;2022-08-04T19:33:57;2.10;;;1.85;;
9176;SDS011;4623;54.310;10.112;2022-08-04T19:36:23;1.88;;;1.40;;
9176;SDS011;4623;54.310;10.112;2022-08-04T19:38:51;3.45;;;1.92;;
9176;SDS011;4623;54.310;10.112;2022-08-04T19:41:17;2.88;;;2.00;;
9176;SDS011;4623;54.310;10.112;2022-08-04T19:43:43;1.98;;;1.63;;
9176;SDS011;4623;54.310;10.112;2022-08-04T19:46:10;2.85;;;1.50;;
9176;SDS011;4623;54.310;10.112;2022-08-04T19:48:36;1.52;;;1.42;;
9176;SDS011;4623;54.310;10.112;2022-08-04T19:51:02;1.77;;;1.30;;
9176;SDS011;4623;54.310;10.112;2022-08-04T19:53:27;2.55;;;1.83;;
9176;SDS011;4623;54.310;10.112;2022-08-04T19:55:53;3.10;;;1.67;;
9176;SDS011;4623;54.310;10.112;2022-08-04T19:58:19;2.70;;;1.70;;
9176;SDS011;4623;54.310;10.112;2022-08-04T20:00:44;3.50;;;1.45;;
9176;SDS011;4623;54.310;10.112;2022-08-04T20:03:10;1.98;;;1.40;;
9176;SDS011;4623;54.310;10.112;2022-08-04T20:05:44;2.35;;;1.77;;
9176;SDS011;4623;54.310;10.112;2022-08-04T20:08:10;2.42;;;1.75;;